Kelso, California
Current Conditions -  °F | °C
As of 6:55 AM on Monday 22 Dec 2014 (Local Time) from KBYS Reporting Station
Clear Clear  
Wind Chill: 43°   Ceiling: Unl
Heat Index: 48°   Visibility: 10mi
Dew Point: 40°   Wind: 9mph
Humidity: 73%   Direction: 10°N
Pressure: 30.11"   Gusts: NA
Location:  35.302°N, 116.014°W
Report Text: KBYS 221455Z AUTO 01008KT 10SM CLR 09/04 A3011 RMK AO2 SLP210 T00870042 54000 $
Loading
Personal Weather Stations






























Interactive Weather Map New forecast layout! Learn more

10-Day Weather Forecast

Advertisements
Track Severe Weather on mobile